sensor_id;sensor_type;location;lat;lon;timestamp;pressure;altitude;pressure_sealevel;temperature;humidity
11878;BME280;5998;42.676;23.268;2023-02-01T00:00:11;94895.25;;;1.42;100.00
11878;BME280;5998;42.676;23.268;2023-02-01T00:02:39;94895.88;;;1.58;100.00
11878;BME280;5998;42.676;23.268;2023-02-01T00:05:07;94874.53;;;1.44;100.00
11878;BME280;5998;42.676;23.268;2023-02-01T00:07:34;94896.72;;;1.53;100.00
11878;BME280;5998;42.676;23.268;2023-02-01T00:10:01;94904.97;;;1.52;100.00
11878;BME280;5998;42.676;23.268;2023-02-01T00:12:29;94878.84;;;1.35;100.00
11878;BME280;5998;42.676;23.268;2023-02-01T00:14:55;94909.25;;;1.48;100.00
11878;BME280;5998;42.676;23.268;2023-02-01T00:17:22;94908.78;;;1.41;100.00
11878;BME280;5998;42.676;23.268;2023-02-01T00:19:51;94909.31;;;1.43;100.00
11878;BME280;5998;42.676;23.268;2023-02-01T00:22:18;94906.38;;;1.44;100.00
11878;BME280;5998;42.676;23.268;2023-02-01T00:24:44;94899.56;;;1.33;100.00
11878;BME280;5998;42.676;23.268;2023-02-01T00:27:11;94904.09;;;1.33;100.00
11878;BME280;5998;42.676;23.268;2023-02-01T00:29:43;94901.44;;;1.33;100.00
11878;BME280;5998;42.676;23.268;2023-02-01T00:32:09;94903.25;;;1.37;100.00
11878;BME280;5998;42.676;23.268;2023-02-01T00:34:36;94903.75;;;1.39;100.00
11878;BME280;5998;42.676;23.268;2023-02-01T00:37:04;94902.66;;;1.45;100.00
11878;BME280;5998;42.676;23.268;2023-02-01T00:39:31;94896.06;;;1.43;100.00
11878;BME280;5998;42.676;23.268;2023-02-01T00:41:59;94890.94;;;1.46;100.00
11878;BME280;5998;42.676;23.268;2023-02-01T00:44:27;94896.25;;;1.46;100.00
11878;BME280;5998;42.676;23.268;2023-02-01T00:46:58;94889.38;;;1.45;100.00
11878;BME280;5998;42.676;23.268;2023-02-01T00:49:25;94895.00;;;1.39;100.00
11878;BME280;5998;42.676;23.268;2023-02-01T00:51:51;94891.13;;;1.31;100.00
11878;BME280;5998;42.676;23.268;2023-02-01T00:54:19;94878.03;;;1.40;100.00
11878;BME280;5998;42.676;23.268;2023-02-01T00:56:46;94883.34;;;1.40;100.00
11878;BME280;5998;42.676;23.268;2023-02-01T00:59:13;94885.69;;;1.41;100.00
11878;BME280;5998;42.676;23.268;2023-02-01T01:01:40;94881.31;;;1.32;100.00
11878;BME280;5998;42.676;23.268;2023-02-01T01:04:06;94878.34;;;1.33;100.00
11878;BME280;5998;42.676;23.268;2023-02-01T01:06:34;94875.69;;;1.33;100.00
11878;BME280;5998;42.676;23.268;2023-02-01T01:09:02;94874.09;;;1.32;100.00
11878;BME280;5998;42.676;23.268;2023-02-01T01:11:34;94878.72;;;1.22;100.00
11878;BME280;5998;42.676;23.268;2023-02-01T01:14:02;94859.22;;;1.07;100.00
11878;BME280;5998;42.676;23.268;2023-02-01T01:16:30;94867.84;;;1.23;100.00
11878;BME280;5998;42.676;23.268;2023-02-01T01:18:58;94851.00;;;1.09;100.00
11878;BME280;5998;42.676;23.268;2023-02-01T01:21:26;94876.38;;;1.20;100.00
11878;BME280;5998;42.676;23.268;2023-02-01T01:23:53;94878.91;;;1.30;100.00
11878;BME280;5998;42.676;23.268;2023-02-01T01:26:21;94871.25;;;1.29;100.00
11878;BME280;5998;42.676;23.268;2023-02-01T01:28:50;94874.31;;;1.12;100.00
11878;BME280;5998;42.676;23.268;2023-02-01T01:31:19;94879.38;;;1.08;100.00
11878;BME280;5998;42.676;23.268;2023-02-01T01:33:48;94877.56;;;1.04;100.00
11878;BME280;5998;42.676;23.268;2023-02-01T01:36:15;94882.91;;;0.99;100.00
11878;BME280;5998;42.676;23.268;2023-02-01T01:38:43;94885.78;;;1.02;100.00
11878;BME280;5998;42.676;23.268;2023-02-01T01:41:13;94893.31;;;0.90;100.00
11878;BME280;5998;42.676;23.268;2023-02-01T01:43:53;94883.31;;;0.82;100.00
11878;BME280;5998;42.676;23.268;2023-02-01T01:46:23;94873.59;;;0.68;100.00
11878;BME280;5998;42.676;23.268;2023-02-01T01:48:53;94886.97;;;0.86;100.00
11878;BME280;5998;42.676;23.268;2023-02-01T01:51:24;94884.41;;;0.76;100.00
11878;BME280;5998;42.676;23.268;2023-02-01T01:53:58;94889.75;;;0.71;100.00
11878;BME280;5998;42.676;23.268;2023-02-01T01:56:27;94888.44;;;0.69;100.00
11878;BME280;5998;42.676;23.268;2023-02-01T01:58:56;94887.13;;;0.66;100.00
11878;BME280;5998;42.676;23.268;2023-02-01T02:01:23;94875.78;;;0.55;100.00
11878;BME280;5998;42.676;23.268;2023-02-01T02:03:51;94884.00;;;0.59;100.00
11878;BME280;5998;42.676;23.268;2023-02-01T02:06:29;94886.13;;;0.57;100.00
11878;BME280;5998;42.676;23.268;2023-02-01T02:08:59;94884.28;;;0.57;100.00
11878;BME280;5998;42.676;23.268;2023-02-01T02:11:26;94883.53;;;0.47;100.00
11878;BME280;5998;42.676;23.268;2023-02-01T02:13:55;94877.94;;;0.53;100.00
11878;BME280;5998;42.676;23.268;2023-02-01T02:16:40;94875.00;;;0.60;100.00
11878;BME280;5998;42.676;23.268;2023-02-01T02:19:28;94875.53;;;0.57;100.00
11878;BME280;5998;42.676;23.268;2023-02-01T02:22:40;94882.19;;;0.54;100.00
11878;BME280;5998;42.676;23.268;2023-02-01T02:25:28;94881.59;;;0.63;100.00
11878;BME280;5998;42.676;23.268;2023-02-01T02:28:06;94885.59;;;0.60;100.00
11878;BME280;5998;42.676;23.268;2023-02-01T02:30:53;94850.50;;;0.34;100.00
11878;BME280;5998;42.676;23.268;2023-02-01T02:36:37;94883.09;;;0.74;100.00
11878;BME280;5998;42.676;23.268;2023-02-01T02:39:07;94894.00;;;0.67;100.00
11878;BME280;5998;42.676;23.268;2023-02-01T02:41:45;94888.41;;;0.74;100.00
11878;BME280;5998;42.676;23.268;2023-02-01T02:44:35;94885.47;;;0.75;100.00
11878;BME280;5998;42.676;23.268;2023-02-01T02:47:27;94887.31;;;0.75;100.00
11878;BME280;5998;42.676;23.268;2023-02-01T02:50:03;94880.47;;;0.74;100.00
11878;BME280;5998;42.676;23.268;2023-02-01T02:52:56;94878.59;;;0.74;100.00
11878;BME280;5998;42.676;23.268;2023-02-01T02:55:43;94884.66;;;0.75;100.00
11878;BME280;5998;42.676;23.268;2023-02-01T02:58:11;94882.84;;;0.70;100.00
11878;BME280;5998;42.676;23.268;2023-02-01T03:00:56;94880.66;;;0.82;100.00
11878;BME280;5998;42.676;23.268;2023-02-01T03:03:41;94875.34;;;0.82;100.00
11878;BME280;5998;42.676;23.268;2023-02-01T03:06:26;94888.63;;;0.77;100.00
11878;BME280;5998;42.676;23.268;2023-02-01T03:08:57;94889.91;;;0.85;100.00
11878;BME280;5998;42.676;23.268;2023-02-01T03:11:24;94899.16;;;0.87;100.00
11878;BME280;5998;42.676;23.268;2023-02-01T03:14:15;94906.84;;;0.89;100.00
11878;BME280;5998;42.676;23.268;2023-02-01T03:16:47;94906.59;;;0.85;100.00
11878;BME280;5998;42.676;23.268;2023-02-01T03:19:19;94913.41;;;0.96;100.00
11878;BME280;5998;42.676;23.268;2023-02-01T03:21:50;94909.69;;;0.97;100.00
11878;BME280;5998;42.676;23.268;2023-02-01T03:24:23;94910.19;;;0.99;100.00
11878;BME280;5998;42.676;23.268;2023-02-01T03:27:02;94905.19;;;0.98;100.00
11878;BME280;5998;42.676;23.268;2023-02-01T03:29:38;94902.03;;;0.96;100.00
11878;BME280;5998;42.676;23.268;2023-02-01T03:32:06;94905.78;;;0.90;100.00
11878;BME280;5998;42.676;23.268;2023-02-01T03:34:34;94904.13;;;0.99;100.00
11878;BME280;5998;42.676;23.268;2023-02-01T03:37:03;94892.72;;;0.98;100.00
11878;BME280;5998;42.676;23.268;2023-02-01T03:39:36;94906.19;;;1.02;100.00
11878;BME280;5998;42.676;23.268;2023-02-01T03:42:07;94901.66;;;1.07;100.00
11878;BME280;5998;42.676;23.268;2023-02-01T03:44:38;94906.94;;;1.07;100.00
11878;BME280;5998;42.676;23.268;2023-02-01T03:47:10;94910.44;;;1.03;100.00
11878;BME280;5998;42.676;23.268;2023-02-01T03:49:41;94896.72;;;0.96;100.00
11878;BME280;5998;42.676;23.268;2023-02-01T03:52:12;94906.28;;;0.92;100.00
11878;BME280;5998;42.676;23.268;2023-02-01T03:54:42;94896.44;;;0.97;100.00
11878;BME280;5998;42.676;23.268;2023-02-01T03:57:11;94897.78;;;0.95;100.00
11878;BME280;5998;42.676;23.268;2023-02-01T03:59:40;94903.59;;;0.97;100.00
11878;BME280;5998;42.676;23.268;2023-02-01T04:02:07;94909.44;;;0.94;100.00
11878;BME280;5998;42.676;23.268;2023-02-01T04:04:34;94911.47;;;1.07;100.00
11878;BME280;5998;42.676;23.268;2023-02-01T04:07:01;94903.31;;;0.98;100.00
11878;BME280;5998;42.676;23.268;2023-02-01T04:09:27;94916.53;;;1.03;100.00
11878;BME280;5998;42.676;23.268;2023-02-01T04:11:55;94903.19;;;1.13;100.00
11878;BME280;5998;42.676;23.268;2023-02-01T04:14:22;94899.84;;;1.03;100.00
11878;BME280;5998;42.676;23.268;2023-02-01T04:16:49;94904.28;;;1.07;100.00
11878;BME280;5998;42.676;23.268;2023-02-01T04:19:15;94902.59;;;1.22;100.00
11878;BME280;5998;42.676;23.268;2023-02-01T04:21:42;94913.50;;;1.20;100.00
11878;BME280;5998;42.676;23.268;2023-02-01T04:24:09;94911.66;;;1.15;100.00
11878;BME280;5998;42.676;23.268;2023-02-01T04:26:36;94917.09;;;1.34;100.00
11878;BME280;5998;42.676;23.268;2023-02-01T04:29:04;94910.78;;;1.25;100.00
11878;BME280;5998;42.676;23.268;2023-02-01T04:31:30;94920.84;;;1.28;100.00
11878;BME280;5998;42.676;23.268;2023-02-01T04:33:57;94925.41;;;1.23;100.00
11878;BME280;5998;42.676;23.268;2023-02-01T04:36:24;94911.84;;;1.24;100.00
11878;BME280;5998;42.676;23.268;2023-02-01T04:38:51;94906.22;;;1.31;100.00
11878;BME280;5998;42.676;23.268;2023-02-01T04:41:18;94885.38;;;1.19;100.00
11878;BME280;5998;42.676;23.268;2023-02-01T04:43:45;94914.53;;;1.19;100.00
11878;BME280;5998;42.676;23.268;2023-02-01T04:46:14;94915.06;;;1.21;100.00
11878;BME280;5998;42.676;23.268;2023-02-01T04:48:41;94921.09;;;1.27;100.00
11878;BME280;5998;42.676;23.268;2023-02-01T04:51:08;94911.81;;;1.29;100.00
11878;BME280;5998;42.676;23.268;2023-02-01T04:53:35;94921.53;;;1.39;100.00
11878;BME280;5998;42.676;23.268;2023-02-01T04:56:02;94931.84;;;1.40;100.00
11878;BME280;5998;42.676;23.268;2023-02-01T04:58:28;94929.25;;;1.35;100.00
11878;BME280;5998;42.676;23.268;2023-02-01T05:00:55;94922.28;;;1.44;100.00
11878;BME280;5998;42.676;23.268;2023-02-01T05:03:23;94936.53;;;1.53;100.00
11878;BME280;5998;42.676;23.268;2023-02-01T05:05:50;94933.84;;;1.58;100.00
11878;BME280;5998;42.676;23.268;2023-02-01T05:08:18;94932.72;;;1.64;100.00
11878;BME280;5998;42.676;23.268;2023-02-01T05:10:47;94944.94;;;1.60;100.00
11878;BME280;5998;42.676;23.268;2023-02-01T05:13:14;94938.59;;;1.61;100.00
11878;BME280;5998;42.676;23.268;2023-02-01T05:15:59;94942.59;;;1.59;100.00
11878;BME280;5998;42.676;23.268;2023-02-01T05:18:27;94950.56;;;1.59;100.00
11878;BME280;5998;42.676;23.268;2023-02-01T05:20:53;94946.34;;;1.53;100.00
11878;BME280;5998;42.676;23.268;2023-02-01T05:23:20;94946.84;;;1.55;100.00
11878;BME280;5998;42.676;23.268;2023-02-01T05:25:47;94940.50;;;1.56;100.00
11878;BME280;5998;42.676;23.268;2023-02-01T05:28:13;94942.81;;;1.62;100.00
11878;BME280;5998;42.676;23.268;2023-02-01T05:30:40;94937.50;;;1.62;100.00
11878;BME280;5998;42.676;23.268;2023-02-01T05:33:07;94939.59;;;1.65;100.00
11878;BME280;5998;42.676;23.268;2023-02-01T05:35:35;94941.44;;;1.65;100.00
11878;BME280;5998;42.676;23.268;2023-02-01T05:38:01;94940.44;;;1.61;100.00
11878;BME280;5998;42.676;23.268;2023-02-01T05:40:28;94942.03;;;1.62;100.00
11878;BME280;5998;42.676;23.268;2023-02-01T05:42:55;94947.56;;;1.65;100.00
11878;BME280;5998;42.676;23.268;2023-02-01T05:45:21;94939.53;;;1.70;100.00
11878;BME280;5998;42.676;23.268;2023-02-01T05:47:48;94940.63;;;1.69;100.00
11878;BME280;5998;42.676;23.268;2023-02-01T05:50:15;94943.97;;;1.80;100.00
11878;BME280;5998;42.676;23.268;2023-02-01T05:52:43;94929.91;;;1.79;100.00
11878;BME280;5998;42.676;23.268;2023-02-01T05:55:10;94933.84;;;1.82;100.00
11878;BME280;5998;42.676;23.268;2023-02-01T05:57:36;94940.38;;;1.95;100.00
11878;BME280;5998;42.676;23.268;2023-02-01T06:00:05;94943.78;;;1.95;100.00
11878;BME280;5998;42.676;23.268;2023-02-01T06:02:31;94939.63;;;1.89;100.00
11878;BME280;5998;42.676;23.268;2023-02-01T06:04:58;94947.31;;;1.91;100.00
11878;BME280;5998;42.676;23.268;2023-02-01T06:07:25;94954.03;;;1.83;100.00
11878;BME280;5998;42.676;23.268;2023-02-01T06:09:53;94945.38;;;1.96;100.00
11878;BME280;5998;42.676;23.268;2023-02-01T06:12:19;94954.16;;;1.97;100.00
11878;BME280;5998;42.676;23.268;2023-02-01T06:14:46;94953.09;;;1.98;100.00
11878;BME280;5998;42.676;23.268;2023-02-01T06:17:13;94941.09;;;2.00;100.00
11878;BME280;5998;42.676;23.268;2023-02-01T06:19:39;94944.75;;;2.04;100.00
11878;BME280;5998;42.676;23.268;2023-02-01T06:22:06;94939.75;;;2.03;100.00
11878;BME280;5998;42.676;23.268;2023-02-01T06:24:33;94947.34;;;2.09;100.00
11878;BME280;5998;42.676;23.268;2023-02-01T06:27:01;94960.31;;;2.16;100.00
11878;BME280;5998;42.676;23.268;2023-02-01T06:29:28;94950.75;;;2.15;100.00
11878;BME280;5998;42.676;23.268;2023-02-01T06:31:54;94948.88;;;2.15;100.00
11878;BME280;5998;42.676;23.268;2023-02-01T06:34:21;94951.78;;;2.19;100.00
11878;BME280;5998;42.676;23.268;2023-02-01T06:36:49;94958.00;;;2.33;100.00
11878;BME280;5998;42.676;23.268;2023-02-01T06:39:16;94936.50;;;2.29;100.00
11878;BME280;5998;42.676;23.268;2023-02-01T06:41:42;94955.91;;;2.30;100.00
11878;BME280;5998;42.676;23.268;2023-02-01T06:44:13;94957.63;;;2.39;100.00
11878;BME280;5998;42.676;23.268;2023-02-01T06:46:40;94964.28;;;2.37;100.00
11878;BME280;5998;42.676;23.268;2023-02-01T06:49:06;94971.28;;;2.33;100.00
11878;BME280;5998;42.676;23.268;2023-02-01T06:51:34;94976.53;;;2.38;100.00
11878;BME280;5998;42.676;23.268;2023-02-01T06:54:01;94977.03;;;2.40;100.00
11878;BME280;5998;42.676;23.268;2023-02-01T06:56:27;94980.72;;;2.44;100.00
11878;BME280;5998;42.676;23.268;2023-02-01T06:58:56;94982.94;;;2.56;100.00
11878;BME280;5998;42.676;23.268;2023-02-01T07:01:24;94990.78;;;2.47;100.00
11878;BME280;5998;42.676;23.268;2023-02-01T07:03:51;94989.41;;;2.50;100.00
11878;BME280;5998;42.676;23.268;2023-02-01T07:06:18;95004.63;;;2.44;100.00
11878;BME280;5998;42.676;23.268;2023-02-01T07:08:44;95010.13;;;2.48;100.00
11878;BME280;5998;42.676;23.268;2023-02-01T07:11:13;95008.91;;;2.40;100.00
11878;BME280;5998;42.676;23.268;2023-02-01T07:13:40;95009.97;;;2.39;100.00
11878;BME280;5998;42.676;23.268;2023-02-01T07:16:10;94968.44;;;2.24;100.00
11878;BME280;5998;42.676;23.268;2023-02-01T07:18:39;95012.41;;;2.59;100.00
11878;BME280;5998;42.676;23.268;2023-02-01T07:21:06;95015.06;;;2.59;100.00
11878;BME280;5998;42.676;23.268;2023-02-01T07:23:32;95004.44;;;2.59;100.00
11878;BME280;5998;42.676;23.268;2023-02-01T07:26:01;95013.28;;;2.73;100.00
11878;BME280;5998;42.676;23.268;2023-02-01T07:28:29;95020.03;;;2.66;100.00
11878;BME280;5998;42.676;23.268;2023-02-01T07:31:02;95012.25;;;2.69;100.00
11878;BME280;5998;42.676;23.268;2023-02-01T07:33:29;95007.47;;;2.71;100.00
11878;BME280;5998;42.676;23.268;2023-02-01T07:35:57;95010.88;;;2.77;100.00
11878;BME280;5998;42.676;23.268;2023-02-01T07:38:24;95031.66;;;2.93;100.00
11878;BME280;5998;42.676;23.268;2023-02-01T07:40:50;95012.41;;;3.02;100.00
11878;BME280;5998;42.676;23.268;2023-02-01T07:43:17;95012.41;;;3.02;100.00
11878;BME280;5998;42.676;23.268;2023-02-01T07:45:50;95019.50;;;3.06;100.00
11878;BME280;5998;42.676;23.268;2023-02-01T07:48:17;95023.75;;;3.07;100.00
11878;BME280;5998;42.676;23.268;2023-02-01T07:50:44;95020.31;;;3.07;100.00
11878;BME280;5998;42.676;23.268;2023-02-01T07:53:12;95031.72;;;3.26;100.00
11878;BME280;5998;42.676;23.268;2023-02-01T07:55:39;95022.25;;;3.20;100.00
11878;BME280;5998;42.676;23.268;2023-02-01T07:58:06;95034.25;;;3.17;100.00
11878;BME280;5998;42.676;23.268;2023-02-01T08:00:33;94992.09;;;3.06;100.00
11878;BME280;5998;42.676;23.268;2023-02-01T08:03:17;95041.81;;;3.29;100.00
11878;BME280;5998;42.676;23.268;2023-02-01T08:05:43;95028.72;;;3.32;100.00
11878;BME280;5998;42.676;23.268;2023-02-01T08:08:11;95042.94;;;3.23;100.00
11878;BME280;5998;42.676;23.268;2023-02-01T08:10:38;95044.63;;;3.37;100.00
11878;BME280;5998;42.676;23.268;2023-02-01T08:13:05;95043.81;;;3.37;100.00
11878;BME280;5998;42.676;23.268;2023-02-01T08:15:31;95033.91;;;3.24;100.00
11878;BME280;5998;42.676;23.268;2023-02-01T08:17:58;95030.78;;;3.35;100.00
11878;BME280;5998;42.676;23.268;2023-02-01T08:20:27;95026.19;;;3.41;100.00
11878;BME280;5998;42.676;23.268;2023-02-01T08:22:54;95025.41;;;3.40;100.00
11878;BME280;5998;42.676;23.268;2023-02-01T08:25:23;95028.00;;;3.45;100.00
11878;BME280;5998;42.676;23.268;2023-02-01T08:27:50;95027.91;;;3.50;100.00
11878;BME280;5998;42.676;23.268;2023-02-01T08:30:17;95027.56;;;3.57;100.00
11878;BME280;5998;42.676;23.268;2023-02-01T08:32:44;95033.50;;;3.68;100.00
11878;BME280;5998;42.676;23.268;2023-02-01T08:35:11;95032.72;;;3.67;100.00
11878;BME280;5998;42.676;23.268;2023-02-01T08:37:37;95037.63;;;3.74;100.00
11878;BME280;5998;42.676;23.268;2023-02-01T08:40:05;95039.06;;;3.85;100.00
11878;BME280;5998;42.676;23.268;2023-02-01T08:42:33;95044.03;;;3.91;100.00
11878;BME280;5998;42.676;23.268;2023-02-01T08:45:20;95039.31;;;4.02;100.00
11878;BME280;5998;42.676;23.268;2023-02-01T08:47:47;95040.22;;;4.11;100.00
11878;BME280;5998;42.676;23.268;2023-02-01T08:50:14;95032.22;;;3.97;100.00
11878;BME280;5998;42.676;23.268;2023-02-01T08:52:41;95013.66;;;3.92;100.00
11878;BME280;5998;42.676;23.268;2023-02-01T08:55:09;95024.34;;;4.06;100.00
11878;BME280;5998;42.676;23.268;2023-02-01T08:57:37;95031.69;;;4.28;100.00
11878;BME280;5998;42.676;23.268;2023-02-01T09:00:08;94993.25;;;4.42;100.00
11878;BME280;5998;42.676;23.268;2023-02-01T09:02:35;95033.16;;;5.02;100.00
11878;BME280;5998;42.676;23.268;2023-02-01T09:05:03;95016.63;;;5.13;100.00
11878;BME280;5998;42.676;23.268;2023-02-01T09:07:30;95014.09;;;5.30;100.00
11878;BME280;5998;42.676;23.268;2023-02-01T09:09:57;95025.97;;;5.38;100.00
11878;BME280;5998;42.676;23.268;2023-02-01T09:12:26;95029.59;;;5.42;100.00
11878;BME280;5998;42.676;23.268;2023-02-01T09:14:54;95028.69;;;5.69;100.00
11878;BME280;5998;42.676;23.268;2023-02-01T09:17:21;95032.63;;;5.71;100.00
11878;BME280;5998;42.676;23.268;2023-02-01T09:19:48;95027.78;;;5.87;100.00
11878;BME280;5998;42.676;23.268;2023-02-01T09:22:14;95035.09;;;6.26;100.00
11878;BME280;5998;42.676;23.268;2023-02-01T09:24:41;95038.75;;;6.38;100.00
11878;BME280;5998;42.676;23.268;2023-02-01T09:27:08;95029.50;;;6.14;100.00
11878;BME280;5998;42.676;23.268;2023-02-01T09:29:35;95032.44;;;6.04;100.00
11878;BME280;5998;42.676;23.268;2023-02-01T09:32:03;95033.53;;;6.03;100.00
11878;BME280;5998;42.676;23.268;2023-02-01T09:34:31;95032.31;;;6.09;100.00
11878;BME280;5998;42.676;23.268;2023-02-01T09:36:58;95008.19;;;6.00;100.00
11878;BME280;5998;42.676;23.268;2023-02-01T09:39:25;95025.94;;;5.96;100.00
11878;BME280;5998;42.676;23.268;2023-02-01T09:41:58;95005.91;;;6.16;100.00
11878;BME280;5998;42.676;23.268;2023-02-01T09:44:39;95008.16;;;6.22;100.00
11878;BME280;5998;42.676;23.268;2023-02-01T09:47:12;95007.97;;;6.19;100.00
11878;BME280;5998;42.676;23.268;2023-02-01T09:49:48;95001.06;;;6.18;100.00
11878;BME280;5998;42.676;23.268;2023-02-01T09:52:17;95003.19;;;6.07;100.00
11878;BME280;5998;42.676;23.268;2023-02-01T09:54:51;95006.25;;;6.14;100.00
11878;BME280;5998;42.676;23.268;2023-02-01T09:57:24;94975.47;;;6.25;100.00
11878;BME280;5998;42.676;23.268;2023-02-01T09:59:56;94984.38;;;6.21;100.00
11878;BME280;5998;42.676;23.268;2023-02-01T10:02:28;94988.09;;;6.33;100.00
11878;BME280;5998;42.676;23.268;2023-02-01T10:04:58;94983.28;;;6.52;100.00
11878;BME280;5998;42.676;23.268;2023-02-01T10:07:30;94981.06;;;6.54;100.00
11878;BME280;5998;42.676;23.268;2023-02-01T10:10:04;94986.53;;;6.80;98.77
11878;BME280;5998;42.676;23.268;2023-02-01T10:13:05;94975.47;;;6.73;97.60
11878;BME280;5998;42.676;23.268;2023-02-01T10:15:43;94974.47;;;6.52;100.00
11878;BME280;5998;42.676;23.268;2023-02-01T10:21:18;94972.72;;;6.47;100.00
11878;BME280;5998;42.676;23.268;2023-02-01T10:24:28;94973.81;;;6.46;100.00
11878;BME280;5998;42.676;23.268;2023-02-01T10:27:02;94970.69;;;6.53;100.00
11878;BME280;5998;42.676;23.268;2023-02-01T10:29:34;94969.06;;;6.43;100.00
11878;BME280;5998;42.676;23.268;2023-02-01T10:32:10;94971.34;;;6.59;100.00
11878;BME280;5998;42.676;23.268;2023-02-01T10:34:40;94960.50;;;6.64;99.81
11878;BME280;5998;42.676;23.268;2023-02-01T10:37:20;94954.53;;;6.67;99.44
11878;BME280;5998;42.676;23.268;2023-02-01T10:39:52;94954.56;;;6.84;97.54
11878;BME280;5998;42.676;23.268;2023-02-01T10:42:24;94952.03;;;6.87;98.08
11878;BME280;5998;42.676;23.268;2023-02-01T10:44:52;94947.34;;;7.01;96.14
11878;BME280;5998;42.676;23.268;2023-02-01T10:47:19;94959.97;;;7.18;96.47
11878;BME280;5998;42.676;23.268;2023-02-01T10:49:55;94955.06;;;7.29;90.87
11878;BME280;5998;42.676;23.268;2023-02-01T10:52:31;94965.63;;;7.08;90.65
11878;BME280;5998;42.676;23.268;2023-02-01T10:55:28;94954.59;;;7.18;90.18
11878;BME280;5998;42.676;23.268;2023-02-01T10:57:57;94950.06;;;7.36;92.80
11878;BME280;5998;42.676;23.268;2023-02-01T11:00:24;94951.78;;;7.57;88.53
11878;BME280;5998;42.676;23.268;2023-02-01T11:02:52;94954.28;;;7.62;88.17
11878;BME280;5998;42.676;23.268;2023-02-01T11:05:20;94954.91;;;7.68;87.33
11878;BME280;5998;42.676;23.268;2023-02-01T11:07:50;94961.53;;;7.10;84.67
11878;BME280;5998;42.676;23.268;2023-02-01T11:10:37;94940.53;;;6.87;86.67
11878;BME280;5998;42.676;23.268;2023-02-01T11:13:04;94968.91;;;6.88;90.28
11878;BME280;5998;42.676;23.268;2023-02-01T11:15:31;94943.81;;;6.67;97.26
11878;BME280;5998;42.676;23.268;2023-02-01T11:18:14;94943.97;;;6.62;95.87
11878;BME280;5998;42.676;23.268;2023-02-01T11:20:42;94941.03;;;6.89;94.02
11878;BME280;5998;42.676;23.268;2023-02-01T11:23:15;94936.47;;;6.89;96.93
11878;BME280;5998;42.676;23.268;2023-02-01T11:25:48;94936.59;;;6.84;90.33
11878;BME280;5998;42.676;23.268;2023-02-01T11:28:15;94933.75;;;6.64;92.60
11878;BME280;5998;42.676;23.268;2023-02-01T11:30:45;94924.97;;;6.89;99.67
11878;BME280;5998;42.676;23.268;2023-02-01T11:33:15;94932.50;;;6.87;94.82
11878;BME280;5998;42.676;23.268;2023-02-01T11:35:44;94908.28;;;6.83;95.63
11878;BME280;5998;42.676;23.268;2023-02-01T11:38:20;94935.56;;;7.11;93.36
11878;BME280;5998;42.676;23.268;2023-02-01T11:40:47;94924.53;;;7.21;93.24
11878;BME280;5998;42.676;23.268;2023-02-01T11:43:19;94914.28;;;7.32;91.54
11878;BME280;5998;42.676;23.268;2023-02-01T11:45:54;94919.34;;;7.33;87.97
11878;BME280;5998;42.676;23.268;2023-02-01T11:48:23;94907.19;;;7.19;89.83
11878;BME280;5998;42.676;23.268;2023-02-01T11:51:07;94913.94;;;6.90;87.98
11878;BME280;5998;42.676;23.268;2023-02-01T11:53:49;94892.56;;;7.07;92.02
11878;BME280;5998;42.676;23.268;2023-02-01T11:56:27;94905.31;;;7.02;90.64
11878;BME280;5998;42.676;23.268;2023-02-01T11:59:08;94893.81;;;7.10;90.57
11878;BME280;5998;42.676;23.268;2023-02-01T12:04:59;94880.59;;;7.22;86.76
11878;BME280;5998;42.676;23.268;2023-02-01T12:07:44;94884.81;;;7.23;91.10
11878;BME280;5998;42.676;23.268;2023-02-01T12:10:25;94887.81;;;7.13;90.09
11878;BME280;5998;42.676;23.268;2023-02-01T12:13:02;94883.56;;;7.03;92.21
11878;BME280;5998;42.676;23.268;2023-02-01T12:15:41;94881.38;;;7.14;92.30
11878;BME280;5998;42.676;23.268;2023-02-01T12:18:39;94884.19;;;7.35;91.88
11878;BME280;5998;42.676;23.268;2023-02-01T12:21:25;94884.97;;;7.35;91.41
11878;BME280;5998;42.676;23.268;2023-02-01T12:27:10;94879.16;;;7.16;93.06
11878;BME280;5998;42.676;23.268;2023-02-01T12:29:55;94871.59;;;6.84;91.70
11878;BME280;5998;42.676;23.268;2023-02-01T12:32:35;94873.19;;;7.02;91.71
11878;BME280;5998;42.676;23.268;2023-02-01T12:35:41;94880.09;;;7.11;89.65
11878;BME280;5998;42.676;23.268;2023-02-01T12:38:22;94884.06;;;7.05;92.04
11878;BME280;5998;42.676;23.268;2023-02-01T12:41:09;94882.00;;;6.94;92.60
11878;BME280;5998;42.676;23.268;2023-02-01T12:43:45;94878.22;;;6.95;92.73
11878;BME280;5998;42.676;23.268;2023-02-01T12:46:16;94875.84;;;6.93;92.61
11878;BME280;5998;42.676;23.268;2023-02-01T12:48:53;94890.50;;;7.30;94.01
11878;BME280;5998;42.676;23.268;2023-02-01T12:51:24;94870.50;;;7.19;87.96
11878;BME280;5998;42.676;23.268;2023-02-01T12:53:54;94872.25;;;6.89;89.25
11878;BME280;5998;42.676;23.268;2023-02-01T12:56:26;94887.00;;;6.87;90.17
11878;BME280;5998;42.676;23.268;2023-02-01T12:58:58;94883.72;;;6.98;90.69
11878;BME280;5998;42.676;23.268;2023-02-01T13:01:30;94896.34;;;6.89;92.47
11878;BME280;5998;42.676;23.268;2023-02-01T13:04:04;94891.63;;;6.95;91.51
11878;BME280;5998;42.676;23.268;2023-02-01T13:06:38;94878.53;;;6.85;85.23
11878;BME280;5998;42.676;23.268;2023-02-01T13:09:12;94907.03;;;6.81;82.66
11878;BME280;5998;42.676;23.268;2023-02-01T13:11:44;94906.53;;;6.87;86.35
11878;BME280;5998;42.676;23.268;2023-02-01T13:14:22;94890.50;;;6.70;83.28
11878;BME280;5998;42.676;23.268;2023-02-01T13:16:55;94894.38;;;6.56;86.89
11878;BME280;5998;42.676;23.268;2023-02-01T13:19:28;94891.75;;;6.73;85.72
11878;BME280;5998;42.676;23.268;2023-02-01T13:21:59;94893.94;;;6.88;87.76
11878;BME280;5998;42.676;23.268;2023-02-01T13:24:32;94899.63;;;6.86;88.62
11878;BME280;5998;42.676;23.268;2023-02-01T13:27:01;94868.28;;;6.87;87.01
11878;BME280;5998;42.676;23.268;2023-02-01T13:29:30;94877.28;;;7.08;83.79
11878;BME280;5998;42.676;23.268;2023-02-01T13:32:12;94880.59;;;7.22;83.28
11878;BME280;5998;42.676;23.268;2023-02-01T13:35:08;94879.75;;;7.47;78.80